createdAt,value
2023-04-08T00:00:03.495Z,95.05
2023-04-08T00:02:32.778Z,95.04
2023-04-08T00:05:00.740Z,95.08
2023-04-08T00:07:28.461Z,95.08
2023-04-08T00:09:56.749Z,94.90
2023-04-08T00:12:24.516Z,95.16
2023-04-08T00:14:52.203Z,94.75
2023-04-08T00:17:19.898Z,94.98
2023-04-08T00:19:48.991Z,95.04
2023-04-08T00:22:16.712Z,94.88
2023-04-08T00:24:44.475Z,94.85
2023-04-08T00:27:12.175Z,94.90
2023-04-08T00:29:39.885Z,95.05
2023-04-08T00:32:07.944Z,94.95
2023-04-08T00:34:35.619Z,95.10
2023-04-08T00:37:04.725Z,95.15
2023-04-08T00:39:32.375Z,95.17
2023-04-08T00:42:01.878Z,95.11
2023-04-08T00:44:29.721Z,95.31
2023-04-08T00:46:57.482Z,95.44
2023-04-08T00:49:25.314Z,94.93
2023-04-08T00:51:53.060Z,95.19
2023-04-08T00:54:22.170Z,94.94
2023-04-08T00:56:49.928Z,94.59
2023-04-08T00:59:19.406Z,94.71
2023-04-08T01:01:56.448Z,94.82
2023-04-08T01:04:30.693Z,95.37
2023-04-08T01:07:04.657Z,95.38
2023-04-08T01:09:36.769Z,95.57
2023-04-08T01:12:09.078Z,95.60
2023-04-08T01:14:43.259Z,95.95
2023-04-08T01:17:11.929Z,96.10
2023-04-08T01:19:41.638Z,95.85
2023-04-08T01:22:20.892Z,96.30
2023-04-08T01:24:54.378Z,96.10
2023-04-08T01:27:23.551Z,96.17
2023-04-08T01:29:51.612Z,96.40
2023-04-08T01:32:19.779Z,96.54
2023-04-08T01:34:47.858Z,96.48
2023-04-08T01:37:17.347Z,96.43
2023-04-08T01:39:46.597Z,96.64
2023-04-08T01:42:15.440Z,96.41
2023-04-08T01:44:45.502Z,96.72
2023-04-08T01:47:14.780Z,96.67
2023-04-08T01:49:43.679Z,96.69
2023-04-08T01:52:12.484Z,96.63
2023-04-08T01:54:40.304Z,96.81
2023-04-08T01:57:12.889Z,97.05
2023-04-08T01:59:42.117Z,97.12
2023-04-08T02:02:12.305Z,97.26
2023-04-08T02:04:40.313Z,96.93
2023-04-08T02:07:08.215Z,97.44
2023-04-08T02:09:35.917Z,97.11
2023-04-08T02:12:03.643Z,97.06
2023-04-08T02:14:31.853Z,97.46
2023-04-08T02:17:06.581Z,97.26
2023-04-08T02:19:41.662Z,97.53
2023-04-08T02:22:18.862Z,97.38
2023-04-08T02:24:47.756Z,97.31
2023-04-08T02:27:17.022Z,97.14
2023-04-08T02:29:45.759Z,97.65
2023-04-08T02:32:13.765Z,97.41
2023-04-08T02:34:44.032Z,97.48
2023-04-08T02:37:11.855Z,97.25
2023-04-08T02:39:39.594Z,97.27
2023-04-08T02:42:07.281Z,97.46
2023-04-08T02:44:35.014Z,97.28
2023-04-08T02:47:02.716Z,97.18
2023-04-08T02:49:30.512Z,96.94
2023-04-08T02:51:59.582Z,96.97
2023-04-08T02:54:27.226Z,97.30
2023-04-08T02:56:54.972Z,97.38
2023-04-08T02:59:22.783Z,97.36
2023-04-08T03:01:50.640Z,97.10
2023-04-08T03:04:18.354Z,97.25
2023-04-08T03:06:46.098Z,97.42
2023-04-08T03:09:15.160Z,97.16
2023-04-08T03:11:42.880Z,97.10
2023-04-08T03:14:10.587Z,97.22
2023-04-08T03:16:38.398Z,97.11
2023-04-08T03:19:06.117Z,97.33
2023-04-08T03:21:33.770Z,97.34
2023-04-08T03:24:01.448Z,97.60
2023-04-08T03:26:30.689Z,97.30
2023-04-08T03:28:58.435Z,97.52
2023-04-08T03:31:26.730Z,97.35
2023-04-08T03:33:54.451Z,97.19
2023-04-08T03:36:22.083Z,97.06
2023-04-08T03:38:49.953Z,97.14
2023-04-08T03:41:17.742Z,96.86
2023-04-08T03:43:46.982Z,96.81
2023-04-08T03:46:14.686Z,97.04
2023-04-08T03:48:42.400Z,97.09
2023-04-08T03:51:10.071Z,97.08
2023-04-08T03:53:37.808Z,96.72
2023-04-08T03:56:06.015Z,97.03
2023-04-08T03:58:33.737Z,97.49
2023-04-08T04:01:02.815Z,97.31
2023-04-08T04:03:30.723Z,97.46
2023-04-08T04:05:58.561Z,97.27
2023-04-08T04:08:26.252Z,97.26
2023-04-08T04:10:54.092Z,97.31
2023-04-08T04:13:22.033Z,97.42
2023-04-08T04:15:49.750Z,97.75
2023-04-08T04:18:18.879Z,97.43
2023-04-08T04:20:46.591Z,97.48
2023-04-08T04:23:14.303Z,97.67
2023-04-08T04:25:42.650Z,97.65
2023-04-08T04:28:10.834Z,97.68
2023-04-08T04:30:38.872Z,97.86
2023-04-08T04:33:06.891Z,97.61
2023-04-08T04:35:36.043Z,97.75
2023-04-08T04:38:05.675Z,97.61
2023-04-08T04:40:33.380Z,97.73
2023-04-08T04:43:01.153Z,97.59
2023-04-08T04:45:28.889Z,98.04
2023-04-08T04:47:56.644Z,97.94
2023-04-08T04:50:24.398Z,98.04
2023-04-08T04:52:53.407Z,98.29
2023-04-08T04:55:22.412Z,98.09
2023-04-08T04:57:50.314Z,97.91
2023-04-08T05:00:18.201Z,98.24
2023-04-08T05:02:46.107Z,98.12
2023-04-08T05:05:14.082Z,98.36
2023-04-08T05:07:41.965Z,98.18
2023-04-08T05:10:11.957Z,98.40
2023-04-08T05:12:39.617Z,98.33
2023-04-08T05:15:08.546Z,98.66
2023-04-08T05:17:36.269Z,98.98
2023-04-08T05:20:04.493Z,98.94
2023-04-08T05:22:32.317Z,98.87
2023-04-08T05:24:59.995Z,99.13
2023-04-08T05:27:29.055Z,98.91
2023-04-08T05:29:56.744Z,99.24
2023-04-08T05:32:24.555Z,99.01
2023-04-08T05:34:52.277Z,99.35
2023-04-08T05:37:19.995Z,99.42
2023-04-08T05:39:47.687Z,99.74
2023-04-08T05:42:15.628Z,99.66
2023-04-08T05:44:44.820Z,99.57
2023-04-08T05:47:13.100Z,99.57
2023-04-08T05:49:40.794Z,99.30
2023-04-08T05:52:08.528Z,99.56
2023-04-08T05:54:36.364Z,99.49
2023-04-08T05:57:04.321Z,99.37
2023-04-08T05:59:31.989Z,99.67
2023-04-08T06:02:01.091Z,99.56
2023-04-08T06:04:28.890Z,99.19
2023-04-08T06:06:59.571Z,99.12
2023-04-08T06:09:27.376Z,98.93
2023-04-08T06:11:55.053Z,99.27
2023-04-08T06:14:22.706Z,99.15
2023-04-08T06:16:50.417Z,98.93
2023-04-08T06:19:19.554Z,98.65
2023-04-08T06:21:47.302Z,98.44
2023-04-08T06:24:14.978Z,97.83
2023-04-08T06:26:42.639Z,97.42
2023-04-08T06:29:10.348Z,97.10
2023-04-08T06:31:38.113Z,96.34
2023-04-08T06:34:05.829Z,96.38
2023-04-08T06:36:34.841Z,96.37
2023-04-08T06:39:02.527Z,95.74
2023-04-08T06:41:30.252Z,95.55
2023-04-08T06:43:57.892Z,95.40
2023-04-08T06:46:26.498Z,94.79
2023-04-08T06:48:54.214Z,95.04
2023-04-08T06:51:21.903Z,94.88
2023-04-08T06:53:50.979Z,94.61
2023-04-08T06:56:18.688Z,94.57
2023-04-08T06:58:47.286Z,94.87
2023-04-08T07:01:16.413Z,94.65
2023-04-08T07:03:44.440Z,94.83
2023-04-08T07:06:12.245Z,94.44
2023-04-08T07:08:39.980Z,93.98
2023-04-08T07:11:09.236Z,93.11
2023-04-08T07:13:36.919Z,92.34
2023-04-08T07:16:04.928Z,91.61
2023-04-08T07:18:32.943Z,90.15
2023-04-08T07:21:01.035Z,89.35
2023-04-08T07:23:28.974Z,87.76
2023-04-08T07:25:56.756Z,86.58
2023-04-08T07:28:25.769Z,85.86
2023-04-08T07:30:53.526Z,85.84
2023-04-08T07:33:21.250Z,84.77
2023-04-08T07:35:48.980Z,84.71
2023-04-08T07:38:16.705Z,85.25
2023-04-08T07:40:44.379Z,84.33
2023-04-08T07:43:12.112Z,84.16
2023-04-08T07:45:41.166Z,83.24
2023-04-08T07:48:08.929Z,84.22
2023-04-08T07:51:08.913Z,82.99
2023-04-08T07:53:26.605Z,83.41
2023-04-08T07:55:54.390Z,83.96
2023-04-08T07:58:22.241Z,84.33
2023-04-08T08:00:51.422Z,84.22
2023-04-08T08:03:19.475Z,84.80
2023-04-08T08:05:47.286Z,84.43
2023-04-08T08:08:14.963Z,84.95
2023-04-08T08:10:42.650Z,84.89
2023-04-08T08:13:10.346Z,84.66
2023-04-08T08:15:38.110Z,84.59
2023-04-08T08:18:07.178Z,84.60
2023-04-08T08:20:36.806Z,83.14
2023-04-08T08:23:04.577Z,82.33
2023-04-08T08:25:32.278Z,81.88
2023-04-08T08:28:00.048Z,81.87
2023-04-08T08:30:28.062Z,81.57
2023-04-08T08:32:59.016Z,81.67
2023-04-08T08:35:28.447Z,82.06
2023-04-08T08:37:56.320Z,81.56
2023-04-08T08:40:24.155Z,81.19
2023-04-08T08:42:53.346Z,80.59
2023-04-08T08:45:21.520Z,79.56
2023-04-08T08:47:51.191Z,79.36
2023-04-08T08:50:19.860Z,79.29
2023-04-08T08:52:51.564Z,78.32
2023-04-08T08:55:34.948Z,77.55
2023-04-08T08:58:08.615Z,77.68
2023-04-08T09:00:38.213Z,77.90
2023-04-08T09:03:20.087Z,77.08
2023-04-08T09:05:55.686Z,77.41
2023-04-08T09:08:29.201Z,76.58
2023-04-08T09:10:57.567Z,76.79
2023-04-08T09:13:25.582Z,77.25
2023-04-08T09:16:05.168Z,76.54
2023-04-08T09:18:33.645Z,75.88
2023-04-08T09:21:02.371Z,75.34
2023-04-08T09:23:46.001Z,74.77
2023-04-08T09:26:15.766Z,74.21
2023-04-08T09:28:45.338Z,74.10
2023-04-08T09:31:24.276Z,73.45
2023-04-08T09:33:54.744Z,71.22
2023-04-08T09:36:22.815Z,69.45
2023-04-08T09:38:51.921Z,67.45
2023-04-08T09:41:23.377Z,67.47
2023-04-08T09:43:52.638Z,67.90
2023-04-08T09:46:28.146Z,67.78
2023-04-08T09:49:03.194Z,68.51
2023-04-08T09:51:37.826Z,67.52
2023-04-08T09:54:14.710Z,68.01
2023-04-08T09:56:45.740Z,66.05
2023-04-08T09:59:17.332Z,65.94
2023-04-08T10:01:51.062Z,64.51
2023-04-08T10:04:22.044Z,65.74
2023-04-08T10:06:55.452Z,65.72
2023-04-08T10:09:24.677Z,64.97
2023-04-08T10:11:53.737Z,64.79
2023-04-08T10:14:22.137Z,64.42
2023-04-08T10:16:50.426Z,64.69
2023-04-08T10:19:40.469Z,64.49
2023-04-08T10:22:42.294Z,64.10
2023-04-08T10:25:32.368Z,63.72
2023-04-08T10:28:00.496Z,64.30
2023-04-08T10:30:41.472Z,63.99
2023-04-08T10:33:12.214Z,65.11
2023-04-08T10:35:43.207Z,64.37
2023-04-08T10:38:11.665Z,63.69
2023-04-08T10:40:42.765Z,64.47
2023-04-08T10:43:11.505Z,63.91
2023-04-08T10:45:39.532Z,65.00
2023-04-08T10:48:14.940Z,65.74
2023-04-08T10:50:42.989Z,66.06
2023-04-08T10:53:11.795Z,65.71
2023-04-08T10:55:40.923Z,66.31
2023-04-08T10:58:09.755Z,66.24
2023-04-08T11:00:39.246Z,65.21
2023-04-08T11:03:08.608Z,64.21
2023-04-08T11:05:38.103Z,63.31
2023-04-08T11:08:06.643Z,62.55
2023-04-08T11:10:38.789Z,62.37
2023-04-08T11:13:10.165Z,61.78
2023-04-08T11:15:38.304Z,62.56
2023-04-08T11:18:06.826Z,62.64
2023-04-08T11:20:37.207Z,61.69
2023-04-08T11:23:04.971Z,61.43
2023-04-08T11:25:33.322Z,60.91
2023-04-08T11:28:01.327Z,60.31
2023-04-08T11:30:31.344Z,60.17
2023-04-08T11:32:59.246Z,59.83
2023-04-08T11:35:30.334Z,60.01
2023-04-08T11:37:59.020Z,59.63
2023-04-08T11:40:27.429Z,60.58
2023-04-08T11:42:55.402Z,60.55
2023-04-08T11:45:23.133Z,60.05
2023-04-08T11:47:53.085Z,60.07
2023-04-08T11:50:24.572Z,59.72
2023-04-08T11:52:53.805Z,58.24
2023-04-08T11:55:25.934Z,57.73
2023-04-08T11:57:54.241Z,58.70
2023-04-08T12:00:22.825Z,57.13
2023-04-08T12:02:52.743Z,56.21
2023-04-08T12:05:21.117Z,56.06
2023-04-08T12:07:48.984Z,55.98
2023-04-08T12:10:17.149Z,56.58
2023-04-08T12:12:44.911Z,56.12
2023-04-08T12:15:12.823Z,55.60
2023-04-08T12:17:40.713Z,55.44
2023-04-08T12:20:11.559Z,55.56
2023-04-08T12:22:39.468Z,53.09
2023-04-08T12:25:08.006Z,52.57
2023-04-08T12:27:35.680Z,52.24
2023-04-08T12:30:04.497Z,51.69
2023-04-08T12:32:32.372Z,50.68
2023-04-08T12:35:00.047Z,51.47
2023-04-08T12:37:29.177Z,51.30
2023-04-08T12:39:56.939Z,51.10
2023-04-08T12:42:24.713Z,48.98
2023-04-08T12:44:52.702Z,49.28
2023-04-08T12:47:20.326Z,48.54
2023-04-08T12:49:49.760Z,48.47
2023-04-08T12:52:18.738Z,48.48
2023-04-08T12:54:47.856Z,48.72
2023-04-08T12:57:15.540Z,49.11
2023-04-08T12:59:43.255Z,48.58
2023-04-08T13:02:11.057Z,49.09
2023-04-08T13:04:38.865Z,49.39
2023-04-08T13:07:07.678Z,49.39
2023-04-08T13:09:35.510Z,49.09
2023-04-08T13:12:04.852Z,48.85
2023-04-08T13:14:32.893Z,49.86
2023-04-08T13:17:00.664Z,49.95
2023-04-08T13:19:28.401Z,50.14
2023-04-08T13:21:56.165Z,50.29
2023-04-08T13:24:24.081Z,50.23
2023-04-08T13:26:52.409Z,50.11
2023-04-08T13:29:21.469Z,50.17
2023-04-08T13:31:49.330Z,50.22
2023-04-08T13:34:16.990Z,49.20
2023-04-08T13:36:44.636Z,50.18
2023-04-08T13:39:12.309Z,49.97
2023-04-08T13:41:39.895Z,50.14
2023-04-08T13:44:07.638Z,49.73
2023-04-08T13:46:36.673Z,49.93
2023-04-08T13:49:04.391Z,50.04
2023-04-08T13:51:32.033Z,50.94
2023-04-08T13:53:59.694Z,50.39
2023-04-08T13:56:27.398Z,50.08
2023-04-08T13:58:57.494Z,49.65
2023-04-08T14:01:25.870Z,49.78
2023-04-08T14:03:55.008Z,49.45
2023-04-08T14:06:22.762Z,49.37
2023-04-08T14:08:50.812Z,49.35
2023-04-08T14:11:18.721Z,49.18
2023-04-08T14:13:46.388Z,48.77
2023-04-08T14:16:14.176Z,48.97
2023-04-08T14:18:41.889Z,49.84
2023-04-08T14:21:10.924Z,49.58
2023-04-08T14:23:38.550Z,49.43
2023-04-08T14:26:06.690Z,50.01
2023-04-08T14:28:34.293Z,50.28
2023-04-08T14:31:04.091Z,50.88
2023-04-08T14:33:31.879Z,51.54
2023-04-08T14:36:00.265Z,52.23
2023-04-08T14:38:29.440Z,52.60
2023-04-08T14:40:57.159Z,52.42
2023-04-08T14:43:24.974Z,52.67
2023-04-08T14:45:52.672Z,53.02
2023-04-08T14:48:20.686Z,53.98
2023-04-08T14:50:48.349Z,54.34
2023-04-08T14:53:17.075Z,55.00
2023-04-08T14:55:46.196Z,54.75
2023-04-08T14:58:13.913Z,54.77
2023-04-08T15:00:44.235Z,55.26
2023-04-08T15:03:12.196Z,55.36
2023-04-08T15:05:39.957Z,55.30
2023-04-08T15:08:07.831Z,54.57
2023-04-08T15:10:35.661Z,55.03
2023-04-08T15:13:04.995Z,55.20
2023-04-08T15:15:32.785Z,55.40
2023-04-08T15:18:00.552Z,55.55
2023-04-08T15:20:28.224Z,55.66
2023-04-08T15:22:57.040Z,56.20
2023-04-08T15:25:24.676Z,56.06
2023-04-08T15:27:52.456Z,56.11
2023-04-08T15:30:24.533Z,56.34
2023-04-08T15:32:52.595Z,56.53
2023-04-08T15:35:20.770Z,57.03
2023-04-08T15:37:48.634Z,57.12
2023-04-08T15:40:16.633Z,57.11
2023-04-08T15:42:44.666Z,56.50
2023-04-08T15:45:13.106Z,56.38
2023-04-08T15:47:42.241Z,56.25
2023-04-08T15:50:10.872Z,55.17
2023-04-08T15:52:38.552Z,55.60
2023-04-08T15:55:07.361Z,56.23
2023-04-08T15:57:36.634Z,56.84
2023-04-08T16:00:08.491Z,56.99
2023-04-08T16:02:36.639Z,57.99
2023-04-08T16:05:06.752Z,58.21
2023-04-08T16:07:34.449Z,58.31
2023-04-08T16:10:02.113Z,58.86
2023-04-08T16:12:29.914Z,58.81
2023-04-08T16:14:57.840Z,59.41
2023-04-08T16:17:25.719Z,59.86
2023-04-08T16:19:53.385Z,59.35
2023-04-08T16:22:22.543Z,59.06
2023-04-08T16:24:50.302Z,58.83
2023-04-08T16:27:17.997Z,58.71
2023-04-08T16:29:46.053Z,59.18
2023-04-08T16:32:13.764Z,59.43
2023-04-08T16:34:41.539Z,59.18
2023-04-08T16:37:09.419Z,59.95
2023-04-08T16:39:38.498Z,60.23
2023-04-08T16:42:06.394Z,60.65
2023-04-08T16:44:34.724Z,60.72
2023-04-08T16:47:02.393Z,61.80
2023-04-08T16:49:30.223Z,61.69
2023-04-08T16:51:58.295Z,62.63
2023-04-08T16:54:26.037Z,61.87
2023-04-08T16:56:55.779Z,61.93
2023-04-08T16:59:23.505Z,62.17
2023-04-08T17:01:51.604Z,62.82
2023-04-08T17:04:19.451Z,62.96
2023-04-08T17:06:48.154Z,63.18
2023-04-08T17:09:15.964Z,63.11
2023-04-08T17:11:43.875Z,62.95
2023-04-08T17:14:13.078Z,63.34
2023-04-08T17:16:40.846Z,63.75
2023-04-08T17:19:08.551Z,63.92
2023-04-08T17:21:36.206Z,64.92
2023-04-08T17:24:04.486Z,64.32
2023-04-08T17:26:32.258Z,64.50
2023-04-08T17:28:59.967Z,64.93
2023-04-08T17:31:29.704Z,65.32
2023-04-08T17:33:57.411Z,65.73
2023-04-08T17:36:25.745Z,65.92
2023-04-08T17:38:53.457Z,65.83
2023-04-08T17:41:38.421Z,66.12
2023-04-08T17:44:07.737Z,66.29
2023-04-08T17:46:36.942Z,66.44
2023-04-08T17:49:04.650Z,67.01
2023-04-08T17:51:32.926Z,67.20
2023-04-08T17:54:00.927Z,67.06
2023-04-08T17:56:29.102Z,67.15
2023-04-08T17:58:56.746Z,67.49
2023-04-08T18:01:24.562Z,67.79
2023-04-08T18:03:53.776Z,68.22
2023-04-08T18:06:21.788Z,68.24
2023-04-08T18:08:52.435Z,68.82
2023-04-08T18:11:21.087Z,68.98
2023-04-08T18:13:49.160Z,69.54
2023-04-08T18:16:18.228Z,69.78
2023-04-08T18:18:46.957Z,69.94
2023-04-08T18:21:17.861Z,70.12
2023-04-08T18:23:46.952Z,70.60
2023-04-08T18:26:14.596Z,70.74
2023-04-08T18:28:42.329Z,70.54
2023-04-08T18:31:10.037Z,70.85
2023-04-08T18:33:38.977Z,71.36
2023-04-08T18:36:08.506Z,71.02
2023-04-08T18:38:38.167Z,71.55
2023-04-08T18:41:06.467Z,71.75
2023-04-08T18:43:34.821Z,71.92
2023-04-08T18:46:02.980Z,72.25
2023-04-08T18:48:30.703Z,72.60
2023-04-08T18:50:58.642Z,72.92
2023-04-08T18:53:26.483Z,73.75
2023-04-08T18:55:56.116Z,73.80
2023-04-08T18:58:23.890Z,74.23
2023-04-08T19:00:51.678Z,74.23
2023-04-08T19:03:19.511Z,74.58
2023-04-08T19:05:47.553Z,74.93
2023-04-08T19:08:15.458Z,75.40
2023-04-08T19:10:43.186Z,75.94
2023-04-08T19:13:12.298Z,76.18
2023-04-08T19:15:40.050Z,76.46
2023-04-08T19:18:07.836Z,76.86
2023-04-08T19:20:35.508Z,77.31
2023-04-08T19:23:03.573Z,77.57
2023-04-08T19:25:31.831Z,77.95
2023-04-08T19:28:02.490Z,77.84
2023-04-08T19:30:31.670Z,77.85
2023-04-08T19:32:59.783Z,77.56
2023-04-08T19:35:27.513Z,78.28
2023-04-08T19:37:55.404Z,78.88
2023-04-08T19:40:23.281Z,79.27
2023-04-08T19:42:50.946Z,78.96
2023-04-08T19:45:19.039Z,79.37
2023-04-08T19:47:48.109Z,79.76
2023-04-08T19:50:16.155Z,79.50
2023-04-08T19:52:43.906Z,79.79
2023-04-08T19:55:11.728Z,79.74
2023-04-08T19:57:39.429Z,79.98
2023-04-08T20:00:08.783Z,80.44
2023-04-08T20:02:36.827Z,80.55
2023-04-08T20:05:06.885Z,80.27
2023-04-08T20:07:35.281Z,80.52
2023-04-08T20:10:02.982Z,80.70
2023-04-08T20:12:31.250Z,80.74
2023-04-08T20:14:58.896Z,81.00
2023-04-08T20:17:27.173Z,81.11
2023-04-08T20:19:55.085Z,80.78
2023-04-08T20:22:24.132Z,80.52
2023-04-08T20:24:51.788Z,80.82
2023-04-08T20:27:19.797Z,80.83
2023-04-08T20:29:47.583Z,80.77
2023-04-08T20:32:15.385Z,81.37
2023-04-08T20:34:43.084Z,81.12
2023-04-08T20:37:11.726Z,81.05
2023-04-08T20:39:41.096Z,80.83
2023-04-08T20:42:09.418Z,81.09
2023-04-08T20:44:37.406Z,80.59
2023-04-08T20:47:05.243Z,80.77
2023-04-08T20:49:35.110Z,80.63
2023-04-08T20:52:02.812Z,80.87
2023-04-08T20:54:31.739Z,80.70
2023-04-08T20:57:01.875Z,79.65
2023-04-08T20:59:29.698Z,79.02
2023-04-08T21:01:57.468Z,78.26
2023-04-08T21:04:25.413Z,77.71
2023-04-08T21:06:53.207Z,77.17
2023-04-08T21:09:20.951Z,76.89
2023-04-08T21:11:48.742Z,76.47
2023-04-08T21:14:17.859Z,76.15
2023-04-08T21:16:45.670Z,76.07
2023-04-08T21:19:13.491Z,75.96
2023-04-08T21:21:41.216Z,77.04
2023-04-08T21:24:09.854Z,77.28
2023-04-08T21:26:37.681Z,77.95
2023-04-08T21:29:05.449Z,78.27
2023-04-08T21:31:34.801Z,78.14
2023-04-08T21:34:02.477Z,78.44
2023-04-08T21:36:31.414Z,78.25
2023-04-08T21:38:59.131Z,78.34
2023-04-08T21:41:28.994Z,77.58
2023-04-08T21:43:58.244Z,76.75
2023-04-08T21:46:26.129Z,76.11
2023-04-08T21:48:55.292Z,75.59
2023-04-08T21:51:23.232Z,75.76
2023-04-08T21:53:51.805Z,75.62
2023-04-08T21:56:19.707Z,75.63
2023-04-08T21:58:47.429Z,75.74
2023-04-08T22:01:15.401Z,76.04
2023-04-08T22:03:43.874Z,76.48
2023-04-08T22:06:19.323Z,76.63
2023-04-08T22:08:53.699Z,77.01
2023-04-08T22:11:21.577Z,77.23
2023-04-08T22:13:49.578Z,77.24
2023-04-08T22:16:17.365Z,77.68
2023-04-08T22:18:45.529Z,77.49
2023-04-08T22:21:14.798Z,77.12
2023-04-08T22:23:42.723Z,77.38
2023-04-08T22:26:10.468Z,77.68
2023-04-08T22:28:38.151Z,77.79
2023-04-08T22:31:10.414Z,77.74
2023-04-08T22:33:38.388Z,77.79
2023-04-08T22:36:06.972Z,76.98
2023-04-08T22:38:36.186Z,76.52
2023-04-08T22:41:03.974Z,76.52
2023-04-08T22:43:31.727Z,77.15
2023-04-08T22:45:59.531Z,77.44
2023-04-08T22:48:27.216Z,76.92
2023-04-08T22:50:54.972Z,76.77
2023-04-08T22:53:22.661Z,77.24
2023-04-08T22:55:51.753Z,76.95
2023-04-08T22:58:19.438Z,76.62
2023-04-08T23:00:47.211Z,74.55
2023-04-08T23:03:15.011Z,73.48
2023-04-08T23:05:42.700Z,73.30
2023-04-08T23:08:10.462Z,72.39
2023-04-08T23:10:38.243Z,72.40
2023-04-08T23:13:07.376Z,72.51
2023-04-08T23:15:35.264Z,72.25
2023-04-08T23:18:02.944Z,71.84
2023-04-08T23:20:30.610Z,71.83
2023-04-08T23:22:58.228Z,71.64
2023-04-08T23:25:26.080Z,70.86
2023-04-08T23:27:55.341Z,71.52
2023-04-08T23:30:24.430Z,70.99
2023-04-08T23:32:52.115Z,70.68
2023-04-08T23:35:20.043Z,70.58
2023-04-08T23:37:47.714Z,71.81
2023-04-08T23:40:15.332Z,73.03
2023-04-08T23:42:42.986Z,74.32
2023-04-08T23:45:11.548Z,75.18
2023-04-08T23:47:40.665Z,75.96
2023-04-08T23:50:09.747Z,76.76
2023-04-08T23:52:37.383Z,76.78
2023-04-08T23:55:05.581Z,77.58
2023-04-08T23:57:33.246Z,78.08
